sensor_id;sensor_type;location;lat;lon;timestamp;pressure;altitude;pressure_sealevel;temperature;humidity
59825;BME280;45703;50.898;6.054;2022-11-15T00:01:22;99508.72;;;10.71;91.41
59825;BME280;45703;50.898;6.054;2022-11-15T00:03:50;99511.81;;;10.79;91.03
59825;BME280;45703;50.898;6.054;2022-11-15T00:06:16;99516.69;;;10.82;91.12
59825;BME280;45703;50.898;6.054;2022-11-15T00:08:41;99513.19;;;10.82;91.40
59825;BME280;45703;50.898;6.054;2022-11-15T00:11:09;99515.72;;;10.88;91.29
59825;BME280;45703;50.898;6.054;2022-11-15T00:13:34;99514.41;;;10.91;91.00
59825;BME280;45703;50.898;6.054;2022-11-15T00:16:01;99517.63;;;10.93;92.08
59825;BME280;45703;50.898;6.054;2022-11-15T00:18:26;99509.63;;;10.93;91.85
59825;BME280;45703;50.898;6.054;2022-11-15T00:20:52;99509.75;;;10.98;91.94
59825;BME280;45703;50.898;6.054;2022-11-15T00:23:17;99510.53;;;10.98;92.98
59825;BME280;45703;50.898;6.054;2022-11-15T00:25:43;99514.59;;;11.01;92.39
59825;BME280;45703;50.898;6.054;2022-11-15T00:28:08;99502.03;;;11.01;91.62
59825;BME280;45703;50.898;6.054;2022-11-15T00:30:33;99507.66;;;11.00;91.67
59825;BME280;45703;50.898;6.054;2022-11-15T00:33:06;99506.09;;;11.04;92.81
59825;BME280;45703;50.898;6.054;2022-11-15T00:35:33;99501.34;;;11.06;92.18
59825;BME280;45703;50.898;6.054;2022-11-15T00:37:59;99502.94;;;11.07;92.80
59825;BME280;45703;50.898;6.054;2022-11-15T00:40:25;99495.50;;;11.09;92.02
59825;BME280;45703;50.898;6.054;2022-11-15T00:42:50;99498.75;;;11.11;92.61
59825;BME280;45703;50.898;6.054;2022-11-15T00:45:16;99498.19;;;11.09;92.56
59825;BME280;45703;50.898;6.054;2022-11-15T00:47:44;99490.16;;;11.09;92.77
59825;BME280;45703;50.898;6.054;2022-11-15T00:50:10;99493.31;;;11.06;92.51
59825;BME280;45703;50.898;6.054;2022-11-15T00:52:36;99496.78;;;11.06;92.10
59825;BME280;45703;50.898;6.054;2022-11-15T00:55:01;99491.13;;;11.03;92.61
59825;BME280;45703;50.898;6.054;2022-11-15T00:57:27;99489.50;;;11.02;92.61
59825;BME280;45703;50.898;6.054;2022-11-15T00:59:52;99493.47;;;10.99;92.76
59825;BME280;45703;50.898;6.054;2022-11-15T01:02:17;99491.75;;;10.93;93.57
59825;BME280;45703;50.898;6.054;2022-11-15T01:04:43;99482.34;;;10.91;93.73
59825;BME280;45703;50.898;6.054;2022-11-15T01:07:08;99493.03;;;10.91;94.35
59825;BME280;45703;50.898;6.054;2022-11-15T01:09:34;99489.50;;;10.85;93.00
59825;BME280;45703;50.898;6.054;2022-11-15T01:11:59;99493.78;;;10.86;92.78
59825;BME280;45703;50.898;6.054;2022-11-15T01:14:24;99487.03;;;10.84;93.40
59825;BME280;45703;50.898;6.054;2022-11-15T01:16:50;99474.19;;;10.81;95.02
59825;BME280;45703;50.898;6.054;2022-11-15T01:19:15;99472.81;;;10.78;94.31
59825;BME280;45703;50.898;6.054;2022-11-15T01:21:40;99483.50;;;10.78;93.02
59825;BME280;45703;50.898;6.054;2022-11-15T01:24:07;99487.22;;;10.77;93.71
59825;BME280;45703;50.898;6.054;2022-11-15T01:26:32;99481.53;;;10.74;93.52
59825;BME280;45703;50.898;6.054;2022-11-15T01:28:57;99478.28;;;10.72;92.98
59825;BME280;45703;50.898;6.054;2022-11-15T01:31:23;99479.56;;;10.69;93.14
59825;BME280;45703;50.898;6.054;2022-11-15T01:33:48;99480.06;;;10.66;94.17
59825;BME280;45703;50.898;6.054;2022-11-15T01:36:18;99479.75;;;10.63;93.38
59825;BME280;45703;50.898;6.054;2022-11-15T01:38:54;99467.94;;;10.59;93.16
59825;BME280;45703;50.898;6.054;2022-11-15T01:41:30;99466.53;;;10.56;94.06
59825;BME280;45703;50.898;6.054;2022-11-15T01:47:03;99462.41;;;10.49;94.13
59825;BME280;45703;50.898;6.054;2022-11-15T01:49:32;99450.25;;;10.41;94.04
59825;BME280;45703;50.898;6.054;2022-11-15T01:52:01;99452.00;;;10.36;94.93
59825;BME280;45703;50.898;6.054;2022-11-15T01:54:27;99452.00;;;10.36;94.25
59825;BME280;45703;50.898;6.054;2022-11-15T01:57:01;99455.72;;;10.35;94.77
59825;BME280;45703;50.898;6.054;2022-11-15T01:59:29;99458.88;;;10.32;94.54
59825;BME280;45703;50.898;6.054;2022-11-15T02:01:55;99451.13;;;10.30;95.99
59825;BME280;45703;50.898;6.054;2022-11-15T02:04:36;99461.53;;;10.32;94.74
59825;BME280;45703;50.898;6.054;2022-11-15T02:07:04;99453.06;;;10.35;95.05
59825;BME280;45703;50.898;6.054;2022-11-15T02:09:31;99452.56;;;10.38;95.20
59825;BME280;45703;50.898;6.054;2022-11-15T02:11:57;99452.00;;;10.36;95.40
59825;BME280;45703;50.898;6.054;2022-11-15T02:14:26;99453.72;;;10.42;94.84
59825;BME280;45703;50.898;6.054;2022-11-15T02:25:40;99457.06;;;10.49;94.82
59825;BME280;45703;50.898;6.054;2022-11-15T02:28:44;99458.69;;;10.50;96.68
59825;BME280;45703;50.898;6.054;2022-11-15T02:39:30;99445.44;;;10.55;96.26
59825;BME280;45703;50.898;6.054;2022-11-15T02:42:04;99444.38;;;10.56;95.78
59825;BME280;45703;50.898;6.054;2022-11-15T02:44:53;99443.34;;;10.57;95.79
59825;BME280;45703;50.898;6.054;2022-11-15T02:47:23;99442.50;;;10.56;95.95
59825;BME280;45703;50.898;6.054;2022-11-15T02:49:54;99438.78;;;10.57;96.11
59825;BME280;45703;50.898;6.054;2022-11-15T02:52:21;99433.47;;;10.57;96.16
59825;BME280;45703;50.898;6.054;2022-11-15T02:54:58;99431.63;;;10.58;96.60
59825;BME280;45703;50.898;6.054;2022-11-15T03:00:17;99437.25;;;10.61;96.20
59825;BME280;45703;50.898;6.054;2022-11-15T03:11:13;99427.50;;;10.67;95.59
59825;BME280;45703;50.898;6.054;2022-11-15T03:14:00;99425.41;;;10.69;95.75
59825;BME280;45703;50.898;6.054;2022-11-15T03:16:38;99413.41;;;10.71;95.84
59825;BME280;45703;50.898;6.054;2022-11-15T03:19:17;99403.56;;;10.72;95.65
59825;BME280;45703;50.898;6.054;2022-11-15T03:21:47;99403.91;;;10.75;95.54
59825;BME280;45703;50.898;6.054;2022-11-15T03:24:14;99402.59;;;10.78;95.16
59825;BME280;45703;50.898;6.054;2022-11-15T03:26:43;99408.75;;;10.78;95.43
59825;BME280;45703;50.898;6.054;2022-11-15T03:29:16;99404.28;;;10.84;98.47
59825;BME280;45703;50.898;6.054;2022-11-15T03:31:50;99400.00;;;10.83;96.84
59825;BME280;45703;50.898;6.054;2022-11-15T03:36:49;99406.47;;;10.87;96.13
59825;BME280;45703;50.898;6.054;2022-11-15T03:39:15;99398.44;;;10.87;95.79
59825;BME280;45703;50.898;6.054;2022-11-15T03:46:47;99400.63;;;10.90;96.75
59825;BME280;45703;50.898;6.054;2022-11-15T03:49:29;99392.88;;;10.88;96.13
59825;BME280;45703;50.898;6.054;2022-11-15T03:51:57;99392.88;;;10.88;96.64
59825;BME280;45703;50.898;6.054;2022-11-15T03:54:23;99394.50;;;10.89;96.86
59825;BME280;45703;50.898;6.054;2022-11-15T03:56:49;99386.50;;;10.89;97.70
59825;BME280;45703;50.898;6.054;2022-11-15T03:59:14;99391.00;;;10.89;96.46
59825;BME280;45703;50.898;6.054;2022-11-15T04:01:39;99394.50;;;10.89;96.52
59825;BME280;45703;50.898;6.054;2022-11-15T04:04:05;99379.75;;;10.87;96.21
59825;BME280;45703;50.898;6.054;2022-11-15T04:06:30;99401.47;;;10.90;96.32
59825;BME280;45703;50.898;6.054;2022-11-15T04:08:56;99385.94;;;10.87;96.08
59825;BME280;45703;50.898;6.054;2022-11-15T04:11:21;99381.38;;;10.88;97.54
59825;BME280;45703;50.898;6.054;2022-11-15T04:13:46;99388.34;;;10.89;96.49
59825;BME280;45703;50.898;6.054;2022-11-15T04:16:12;99386.72;;;10.88;96.20
59825;BME280;45703;50.898;6.054;2022-11-15T04:18:37;99392.06;;;10.88;96.65
59825;BME280;45703;50.898;6.054;2022-11-15T04:21:02;99389.66;;;10.86;97.82
59825;BME280;45703;50.898;6.054;2022-11-15T04:23:46;99399.50;;;10.86;96.54
59825;BME280;45703;50.898;6.054;2022-11-15T04:26:30;99384.53;;;10.85;96.33
59825;BME280;45703;50.898;6.054;2022-11-15T04:28:55;99399.50;;;10.86;96.62
59825;BME280;45703;50.898;6.054;2022-11-15T04:31:39;99393.38;;;10.85;96.73
59825;BME280;45703;50.898;6.054;2022-11-15T04:34:05;99401.38;;;10.85;96.30
59825;BME280;45703;50.898;6.054;2022-11-15T04:36:30;99394.16;;;10.86;97.53
59825;BME280;45703;50.898;6.054;2022-11-15T04:39:14;99389.31;;;10.83;98.46
59825;BME280;45703;50.898;6.054;2022-11-15T04:41:39;99400.56;;;10.85;97.80
59825;BME280;45703;50.898;6.054;2022-11-15T04:44:05;99398.38;;;10.82;96.98
59825;BME280;45703;50.898;6.054;2022-11-15T04:46:30;99400.00;;;10.83;98.24
59825;BME280;45703;50.898;6.054;2022-11-15T04:48:55;99409.38;;;10.85;97.61
59825;BME280;45703;50.898;6.054;2022-11-15T04:51:21;99409.13;;;10.87;97.84
59825;BME280;45703;50.898;6.054;2022-11-15T04:53:46;99413.69;;;10.86;97.30
59825;BME280;45703;50.898;6.054;2022-11-15T04:56:12;99413.41;;;10.88;97.03
59825;BME280;45703;50.898;6.054;2022-11-15T04:58:37;99397.31;;;10.83;96.93
59825;BME280;45703;50.898;6.054;2022-11-15T05:01:13;99399.56;;;10.91;97.00
59825;BME280;45703;50.898;6.054;2022-11-15T05:03:42;99390.03;;;10.95;97.26
59825;BME280;45703;50.898;6.054;2022-11-15T05:06:26;99384.78;;;11.00;97.02
59825;BME280;45703;50.898;6.054;2022-11-15T05:08:52;99374.56;;;10.97;97.10
59825;BME280;45703;50.898;6.054;2022-11-15T05:11:18;99383.25;;;11.04;97.84
59825;BME280;45703;50.898;6.054;2022-11-15T05:13:43;99375.72;;;11.01;97.27
59825;BME280;45703;50.898;6.054;2022-11-15T05:16:08;99388.09;;;11.07;97.22
59825;BME280;45703;50.898;6.054;2022-11-15T05:18:34;99387.28;;;11.06;97.15
59825;BME280;45703;50.898;6.054;2022-11-15T05:21:14;99390.78;;;11.07;97.30
59825;BME280;45703;50.898;6.054;2022-11-15T05:23:40;99382.19;;;11.05;97.19
59825;BME280;45703;50.898;6.054;2022-11-15T05:26:07;99378.41;;;11.01;96.95
59825;BME280;45703;50.898;6.054;2022-11-15T05:28:33;99381.88;;;11.01;97.74
59825;BME280;45703;50.898;6.054;2022-11-15T05:31:02;99388.25;;;11.00;96.75
59825;BME280;45703;50.898;6.054;2022-11-15T05:33:28;99388.97;;;10.96;96.71
59825;BME280;45703;50.898;6.054;2022-11-15T05:36:06;99388.41;;;10.94;96.62
59825;BME280;45703;50.898;6.054;2022-11-15T05:38:33;99380.88;;;10.91;96.93
59825;BME280;45703;50.898;6.054;2022-11-15T05:41:00;99375.88;;;10.94;96.87
59825;BME280;45703;50.898;6.054;2022-11-15T05:43:26;99377.25;;;10.97;97.48
59825;BME280;45703;50.898;6.054;2022-11-15T05:45:52;99377.91;;;11.04;97.40
59825;BME280;45703;50.898;6.054;2022-11-15T05:48:18;99381.38;;;11.04;96.93
59825;BME280;45703;50.898;6.054;2022-11-15T05:50:46;99382.19;;;11.05;97.06
59825;BME280;45703;50.898;6.054;2022-11-15T05:53:14;99386.06;;;11.14;97.01
59825;BME280;45703;50.898;6.054;2022-11-15T05:55:41;99380.16;;;11.12;96.94
59825;BME280;45703;50.898;6.054;2022-11-15T05:58:07;99382.91;;;11.17;96.70
59825;BME280;45703;50.898;6.054;2022-11-15T06:00:32;99400.13;;;11.26;96.97
59825;BME280;45703;50.898;6.054;2022-11-15T06:02:58;99404.97;;;11.29;96.86
59825;BME280;45703;50.898;6.054;2022-11-15T06:05:23;99404.41;;;11.27;96.91
59825;BME280;45703;50.898;6.054;2022-11-15T06:07:49;99409.81;;;11.32;96.49
59825;BME280;45703;50.898;6.054;2022-11-15T06:10:14;99421.97;;;11.39;96.63
59825;BME280;45703;50.898;6.054;2022-11-15T06:12:39;99419.03;;;11.41;96.71
59825;BME280;45703;50.898;6.054;2022-11-15T06:15:05;99429.72;;;11.41;96.88
59825;BME280;45703;50.898;6.054;2022-11-15T06:17:31;99421.16;;;11.39;96.94
59825;BME280;45703;50.898;6.054;2022-11-15T06:19:56;99433.44;;;11.40;96.60
59825;BME280;45703;50.898;6.054;2022-11-15T06:22:21;99440.41;;;11.41;96.67
59825;BME280;45703;50.898;6.054;2022-11-15T06:24:47;99422.47;;;11.36;97.21
59825;BME280;45703;50.898;6.054;2022-11-15T06:27:12;99418.91;;;11.31;97.33
59825;BME280;45703;50.898;6.054;2022-11-15T06:29:37;99432.81;;;11.33;97.30
59825;BME280;45703;50.898;6.054;2022-11-15T06:32:03;99436.47;;;11.27;97.15
59825;BME280;45703;50.898;6.054;2022-11-15T06:34:28;99444.19;;;11.23;97.02
59825;BME280;45703;50.898;6.054;2022-11-15T06:36:54;99446.75;;;11.18;96.96
59825;BME280;45703;50.898;6.054;2022-11-15T06:39:19;99454.69;;;11.13;97.05
59825;BME280;45703;50.898;6.054;2022-11-15T06:41:45;99456.00;;;11.11;97.12
59825;BME280;45703;50.898;6.054;2022-11-15T06:44:11;99454.53;;;11.03;97.43
59825;BME280;45703;50.898;6.054;2022-11-15T06:46:36;99459.09;;;11.03;97.21
59825;BME280;45703;50.898;6.054;2022-11-15T06:49:01;99452.13;;;11.02;97.62
59825;BME280;45703;50.898;6.054;2022-11-15T06:51:27;99453.41;;;10.99;98.08
59825;BME280;45703;50.898;6.054;2022-11-15T06:53:52;99445.16;;;11.01;98.06
59825;BME280;45703;50.898;6.054;2022-11-15T06:56:18;99452.59;;;10.99;97.95
59825;BME280;45703;50.898;6.054;2022-11-15T06:58:43;99462.13;;;10.95;98.18
59825;BME280;45703;50.898;6.054;2022-11-15T07:01:10;99459.38;;;10.90;97.93
59825;BME280;45703;50.898;6.054;2022-11-15T07:03:38;99450.81;;;10.88;98.38
59825;BME280;45703;50.898;6.054;2022-11-15T07:06:03;99464.41;;;10.86;98.38
59825;BME280;45703;50.898;6.054;2022-11-15T07:08:29;99462.22;;;10.83;98.37
59825;BME280;45703;50.898;6.054;2022-11-15T07:10:58;99457.69;;;10.84;98.27
59825;BME280;45703;50.898;6.054;2022-11-15T07:13:25;99466.16;;;10.81;98.33
59825;BME280;45703;50.898;6.054;2022-11-15T07:15:51;99471.03;;;10.84;98.59
59825;BME280;45703;50.898;6.054;2022-11-15T07:18:16;99465.03;;;10.77;98.45
59825;BME280;45703;50.898;6.054;2022-11-15T07:20:42;99471.19;;;10.77;98.50
59825;BME280;45703;50.898;6.054;2022-11-15T07:23:07;99470.06;;;10.73;98.41
59825;BME280;45703;50.898;6.054;2022-11-15T07:25:32;99472.97;;;10.72;98.31
59825;BME280;45703;50.898;6.054;2022-11-15T07:27:59;99472.72;;;10.73;98.41
59825;BME280;45703;50.898;6.054;2022-11-15T07:30:25;99472.31;;;10.65;98.71
59825;BME280;45703;50.898;6.054;2022-11-15T07:32:58;99479.00;;;10.67;98.48
59825;BME280;45703;50.898;6.054;2022-11-15T07:35:24;99480.78;;;10.62;98.60
59825;BME280;45703;50.898;6.054;2022-11-15T07:37:58;99481.84;;;10.61;98.46
59825;BME280;45703;50.898;6.054;2022-11-15T07:40:25;99480.22;;;10.60;98.52
59825;BME280;45703;50.898;6.054;2022-11-15T07:42:51;99487.66;;;10.58;98.48
59825;BME280;45703;50.898;6.054;2022-11-15T07:45:24;99489.28;;;10.59;98.71
59825;BME280;45703;50.898;6.054;2022-11-15T07:47:51;99489.28;;;10.59;98.80
59825;BME280;45703;50.898;6.054;2022-11-15T07:50:17;99489.28;;;10.59;98.90
59825;BME280;45703;50.898;6.054;2022-11-15T07:52:43;99491.38;;;10.57;98.86
59825;BME280;45703;50.898;6.054;2022-11-15T07:55:09;99469.38;;;10.50;98.66
59825;BME280;45703;50.898;6.054;2022-11-15T07:57:34;99486.59;;;10.59;98.38
59825;BME280;45703;50.898;6.054;2022-11-15T08:00:00;99480.22;;;10.60;98.22
59825;BME280;45703;50.898;6.054;2022-11-15T08:02:25;99471.88;;;10.56;98.50
59825;BME280;45703;50.898;6.054;2022-11-15T08:04:51;99481.84;;;10.61;97.91
59825;BME280;45703;50.898;6.054;2022-11-15T08:07:16;99466.78;;;10.55;98.09
59825;BME280;45703;50.898;6.054;2022-11-15T08:09:41;99472.78;;;10.62;97.61
59825;BME280;45703;50.898;6.054;2022-11-15T08:12:07;99462.09;;;10.62;97.42
59825;BME280;45703;50.898;6.054;2022-11-15T08:14:32;99470.69;;;10.64;96.82
59825;BME280;45703;50.898;6.054;2022-11-15T08:16:58;99460.22;;;10.62;96.68
59825;BME280;45703;50.898;6.054;2022-11-15T08:19:23;99464.28;;;10.65;96.39
59825;BME280;45703;50.898;6.054;2022-11-15T08:21:49;99457.56;;;10.62;96.34
59825;BME280;45703;50.898;6.054;2022-11-15T08:24:14;99463.72;;;10.63;96.00
59825;BME280;45703;50.898;6.054;2022-11-15T08:26:40;99462.34;;;10.60;95.92
59825;BME280;45703;50.898;6.054;2022-11-15T08:29:06;99467.44;;;10.62;95.83
59825;BME280;45703;50.898;6.054;2022-11-15T08:31:34;99459.84;;;10.54;95.84
59825;BME280;45703;50.898;6.054;2022-11-15T08:34:02;99468.72;;;10.59;95.83
59825;BME280;45703;50.898;6.054;2022-11-15T08:36:27;99466.88;;;10.60;95.54
59825;BME280;45703;50.898;6.054;2022-11-15T08:38:53;99467.09;;;10.58;95.71
59825;BME280;45703;50.898;6.054;2022-11-15T08:41:28;99471.16;;;10.61;94.94
59825;BME280;45703;50.898;6.054;2022-11-15T08:43:55;99462.69;;;10.64;95.00
59825;BME280;45703;50.898;6.054;2022-11-15T08:46:20;99457.34;;;10.64;94.83
59825;BME280;45703;50.898;6.054;2022-11-15T08:48:45;99457.91;;;10.66;94.70
59825;BME280;45703;50.898;6.054;2022-11-15T08:51:11;99457.91;;;10.66;93.76
59825;BME280;45703;50.898;6.054;2022-11-15T08:53:36;99445.44;;;10.71;93.67
59825;BME280;45703;50.898;6.054;2022-11-15T08:56:02;99449.03;;;10.77;93.47
59825;BME280;45703;50.898;6.054;2022-11-15T08:58:27;99427.97;;;10.64;93.39
59825;BME280;45703;50.898;6.054;2022-11-15T09:00:53;99438.34;;;10.77;93.13
59825;BME280;45703;50.898;6.054;2022-11-15T09:03:18;99439.72;;;10.79;92.81
59825;BME280;45703;50.898;6.054;2022-11-15T09:05:43;99438.91;;;10.79;93.01
59825;BME280;45703;50.898;6.054;2022-11-15T09:08:09;99426.59;;;10.78;92.68
59825;BME280;45703;50.898;6.054;2022-11-15T09:10:34;99432.03;;;10.83;92.74
59825;BME280;45703;50.898;6.054;2022-11-15T09:13:00;99417.88;;;10.82;92.33
59825;BME280;45703;50.898;6.054;2022-11-15T09:15:25;99412.06;;;10.85;92.47
59825;BME280;45703;50.898;6.054;2022-11-15T09:17:50;99406.94;;;10.84;92.77
59825;BME280;45703;50.898;6.054;2022-11-15T09:20:16;99399.00;;;10.89;92.63
59825;BME280;45703;50.898;6.054;2022-11-15T09:22:41;99390.44;;;10.87;92.66
59825;BME280;45703;50.898;6.054;2022-11-15T09:25:07;99395.84;;;10.92;92.59
59825;BME280;45703;50.898;6.054;2022-11-15T09:27:33;99396.69;;;10.92;92.39
59825;BME280;45703;50.898;6.054;2022-11-15T09:29:58;99398.03;;;10.95;92.31
59825;BME280;45703;50.898;6.054;2022-11-15T09:32:24;99399.66;;;10.96;92.10
59825;BME280;45703;50.898;6.054;2022-11-15T09:34:52;99393.03;;;10.98;92.28
59825;BME280;45703;50.898;6.054;2022-11-15T09:37:18;99388.25;;;11.00;92.06
59825;BME280;45703;50.898;6.054;2022-11-15T09:39:43;99388.81;;;11.02;91.76
59825;BME280;45703;50.898;6.054;2022-11-15T09:50:53;99374.06;;;11.16;91.43
59825;BME280;45703;50.898;6.054;2022-11-15T09:53:55;99376.81;;;11.21;90.78
59825;BME280;45703;50.898;6.054;2022-11-15T09:56:24;99378.25;;;11.29;90.80
59825;BME280;45703;50.898;6.054;2022-11-15T10:04:15;99377.91;;;11.42;89.23
59825;BME280;45703;50.898;6.054;2022-11-15T10:06:45;99377.09;;;11.41;88.56
59825;BME280;45703;50.898;6.054;2022-11-15T10:09:18;99388.09;;;11.44;88.72
59825;BME280;45703;50.898;6.054;2022-11-15T10:11:44;99383.91;;;11.48;88.81
59825;BME280;45703;50.898;6.054;2022-11-15T10:14:19;99376.44;;;11.50;87.83
59825;BME280;45703;50.898;6.054;2022-11-15T10:16:56;99372.22;;;11.54;87.39
59825;BME280;45703;50.898;6.054;2022-11-15T10:19:39;99360.00;;;11.58;87.66
59825;BME280;45703;50.898;6.054;2022-11-15T10:24:41;99353.88;;;11.63;87.47
59825;BME280;45703;50.898;6.054;2022-11-15T10:27:11;99354.50;;;11.70;86.92
59825;BME280;45703;50.898;6.054;2022-11-15T10:29:42;99356.44;;;11.74;87.29
59825;BME280;45703;50.898;6.054;2022-11-15T10:32:11;99340.72;;;11.78;87.31
59825;BME280;45703;50.898;6.054;2022-11-15T10:34:36;99346.97;;;11.88;86.72
59825;BME280;45703;50.898;6.054;2022-11-15T10:37:01;99336.88;;;11.95;86.14
59825;BME280;45703;50.898;6.054;2022-11-15T10:39:27;99337.75;;;12.01;85.20
59825;BME280;45703;50.898;6.054;2022-11-15T10:41:53;99335.44;;;12.09;86.40
59825;BME280;45703;50.898;6.054;2022-11-15T10:44:20;99309.44;;;12.05;86.35
59825;BME280;45703;50.898;6.054;2022-11-15T10:47:06;99318.97;;;12.22;86.33
59825;BME280;45703;50.898;6.054;2022-11-15T10:49:33;99313.47;;;12.34;85.74
59825;BME280;45703;50.898;6.054;2022-11-15T10:52:02;99319.13;;;12.42;85.82
59825;BME280;45703;50.898;6.054;2022-11-15T10:57:29;99319.28;;;12.57;84.79
59825;BME280;45703;50.898;6.054;2022-11-15T11:00:06;99304.31;;;12.61;84.99
59825;BME280;45703;50.898;6.054;2022-11-15T11:02:34;99306.00;;;12.72;85.13
59825;BME280;45703;50.898;6.054;2022-11-15T11:05:01;99299.38;;;12.80;84.85
59825;BME280;45703;50.898;6.054;2022-11-15T11:07:29;99295.69;;;12.91;84.40
59825;BME280;45703;50.898;6.054;2022-11-15T11:12:28;99287.50;;;13.07;83.35
59825;BME280;45703;50.898;6.054;2022-11-15T11:14:55;99285.94;;;13.16;82.96
59825;BME280;45703;50.898;6.054;2022-11-15T11:17:44;99285.13;;;13.20;82.34
59825;BME280;45703;50.898;6.054;2022-11-15T11:20:37;99288.13;;;13.24;80.94
59825;BME280;45703;50.898;6.054;2022-11-15T11:36:50;99230.53;;;13.31;79.23
59825;BME280;45703;50.898;6.054;2022-11-15T11:45:18;99217.91;;;13.22;79.48
59825;BME280;45703;50.898;6.054;2022-11-15T11:47:51;99225.38;;;13.20;79.50
59825;BME280;45703;50.898;6.054;2022-11-15T11:50:23;99212.00;;;13.20;79.90
59825;BME280;45703;50.898;6.054;2022-11-15T11:52:58;99200.72;;;13.18;74.60
59825;BME280;45703;50.898;6.054;2022-11-15T11:55:33;99201.28;;;13.20;80.16
59825;BME280;45703;50.898;6.054;2022-11-15T11:58:23;99191.09;;;13.27;80.20
59825;BME280;45703;50.898;6.054;2022-11-15T12:00:55;99186.03;;;13.30;80.36
59825;BME280;45703;50.898;6.054;2022-11-15T12:09:03;99156.28;;;13.42;80.64
59825;BME280;45703;50.898;6.054;2022-11-15T12:14:50;99140.22;;;13.47;79.78
59825;BME280;45703;50.898;6.054;2022-11-15T12:17:21;99135.91;;;13.51;79.88
59825;BME280;45703;50.898;6.054;2022-11-15T12:19:48;99130.03;;;13.49;79.63
59825;BME280;45703;50.898;6.054;2022-11-15T12:25:05;99129.50;;;13.52;79.67
59825;BME280;45703;50.898;6.054;2022-11-15T12:27:44;99127.88;;;13.51;77.98
59825;BME280;45703;50.898;6.054;2022-11-15T12:30:17;99129.50;;;13.52;79.70
59825;BME280;45703;50.898;6.054;2022-11-15T12:33:28;99146.09;;;13.49;79.12
59825;BME280;45703;50.898;6.054;2022-11-15T12:35:58;99130.56;;;13.46;79.08
59825;BME280;45703;50.898;6.054;2022-11-15T12:41:21;99129.22;;;13.43;79.83
59825;BME280;45703;50.898;6.054;2022-11-15T12:43:48;99124.13;;;13.42;79.90
59825;BME280;45703;50.898;6.054;2022-11-15T12:49:01;99116.06;;;13.42;80.37
59825;BME280;45703;50.898;6.054;2022-11-15T13:00:00;99081.22;;;13.47;80.75
59825;BME280;45703;50.898;6.054;2022-11-15T13:02:33;99076.69;;;13.47;80.55
59825;BME280;45703;50.898;6.054;2022-11-15T13:17:48;99046.41;;;13.57;80.48
59825;BME280;45703;50.898;6.054;2022-11-15T13:22:58;99037.28;;;13.58;79.82
59825;BME280;45703;50.898;6.054;2022-11-15T13:28:10;99015.28;;;13.61;80.32
59825;BME280;45703;50.898;6.054;2022-11-15T13:30:37;99023.88;;;13.63;80.44
59825;BME280;45703;50.898;6.054;2022-11-15T13:33:13;99021.72;;;13.65;80.22
59825;BME280;45703;50.898;6.054;2022-11-15T13:35:41;99011.78;;;13.65;80.44
59825;BME280;45703;50.898;6.054;2022-11-15T13:38:27;99015.28;;;13.61;80.31
59825;BME280;45703;50.898;6.054;2022-11-15T13:40:53;99019.03;;;13.60;80.69
59825;BME280;45703;50.898;6.054;2022-11-15T13:46:24;99012.06;;;13.54;80.46
59825;BME280;45703;50.898;6.054;2022-11-15T13:49:09;99008.81;;;13.52;80.59
59825;BME280;45703;50.898;6.054;2022-11-15T13:51:47;98995.72;;;13.45;80.75
59825;BME280;45703;50.898;6.054;2022-11-15T13:57:03;98993.56;;;13.42;80.59
59825;BME280;45703;50.898;6.054;2022-11-15T13:59:53;98999.19;;;13.41;81.46
59825;BME280;45703;50.898;6.054;2022-11-15T14:02:28;98978.81;;;13.35;81.22
59825;BME280;45703;50.898;6.054;2022-11-15T14:05:03;98976.69;;;13.32;81.63
59825;BME280;45703;50.898;6.054;2022-11-15T14:07:30;98976.16;;;13.35;81.19
59825;BME280;45703;50.898;6.054;2022-11-15T14:09:55;98971.84;;;13.34;81.60
59825;BME280;45703;50.898;6.054;2022-11-15T14:12:34;98974.53;;;13.34;81.04
59825;BME280;45703;50.898;6.054;2022-11-15T14:15:18;98969.72;;;13.31;80.99
59825;BME280;45703;50.898;6.054;2022-11-15T14:17:44;98962.50;;;13.31;81.49
59825;BME280;45703;50.898;6.054;2022-11-15T14:20:39;98960.88;;;13.30;81.32
59825;BME280;45703;50.898;6.054;2022-11-15T14:23:25;98957.94;;;13.27;80.74
59825;BME280;45703;50.898;6.054;2022-11-15T14:25:56;98951.50;;;13.28;81.61
59825;BME280;45703;50.898;6.054;2022-11-15T14:30:47;98936.50;;;13.22;81.50
59825;BME280;45703;50.898;6.054;2022-11-15T14:33:34;98948.81;;;13.23;81.20
59825;BME280;45703;50.898;6.054;2022-11-15T14:36:20;98938.91;;;13.18;80.86
59825;BME280;45703;50.898;6.054;2022-11-15T14:38:47;98938.38;;;13.16;81.29
59825;BME280;45703;50.898;6.054;2022-11-15T14:41:17;98932.75;;;13.13;81.49
59825;BME280;45703;50.898;6.054;2022-11-15T14:43:43;98931.69;;;13.09;81.46
59825;BME280;45703;50.898;6.054;2022-11-15T14:46:08;98928.47;;;13.07;81.55
59825;BME280;45703;50.898;6.054;2022-11-15T14:48:34;98914.00;;;13.03;81.77
59825;BME280;45703;50.898;6.054;2022-11-15T14:50:59;98913.44;;;13.01;81.80
59825;BME280;45703;50.898;6.054;2022-11-15T14:53:25;98912.66;;;13.00;81.43
59825;BME280;45703;50.898;6.054;2022-11-15T14:55:50;98897.34;;;12.91;81.73
59825;BME280;45703;50.898;6.054;2022-11-15T14:58:15;98900.03;;;12.91;81.56
59825;BME280;45703;50.898;6.054;2022-11-15T15:00:41;98903.56;;;12.92;81.91
59825;BME280;45703;50.898;6.054;2022-11-15T15:03:07;98890.13;;;12.87;81.59
59825;BME280;45703;50.898;6.054;2022-11-15T15:05:35;98887.47;;;12.87;82.03
59825;BME280;45703;50.898;6.054;2022-11-15T15:08:01;98885.56;;;12.82;82.04
59825;BME280;45703;50.898;6.054;2022-11-15T15:10:32;98882.34;;;12.85;81.63
59825;BME280;45703;50.898;6.054;2022-11-15T15:12:59;98875.94;;;12.81;81.91
59825;BME280;45703;50.898;6.054;2022-11-15T15:15:29;98869.78;;;12.81;80.97
59825;BME280;45703;50.898;6.054;2022-11-15T15:17:56;98857.19;;;12.76;81.18
59825;BME280;45703;50.898;6.054;2022-11-15T15:20:21;98866.84;;;12.77;81.88
59825;BME280;45703;50.898;6.054;2022-11-15T15:22:47;98856.41;;;12.76;82.11